Portada
METAR-TAF:

METAR-TAF

Aeropuertos :

Aeropuerto Internacional de Dakar-Yoff/Léopold Sédar Senghor

Dakar, Senegal

latitud: 14-44N, longitud: 017-30W, altitud: 27 m

Observación

El informe se hizo hace 52 minutos, a las 00:00 UTC
Viento 6 kt del norte-noreste
Temperatura 22°C
Humedad 83%
Presión 1014 hPa
Visibilidad: 8000 m

METAR: GOOY 190000Z 02006KT 8000 NSC 22/19 Q1014

Hora: 00:52 (00:52 UTC)

Pronóstico

El informe se hizo hace 1 hora y 22 minutos, a las 23:30 UTC
Pronóstico válido del 19 a las 00 UTC al 20 a las 06 UTC
Viento 8 kt del norte
Visibilidad: 8000 m

TAF: GOOY 182330Z 1900/2006 36008KT 8000 NSC

Observaciones y pronósticos meteorológicos de más de 4000 aeropuertos (mensajes METAR y TAF).

Los puntos amarillos y rojos representan las estaciones disponibles.

Ponga el ratón en el punto deseado para ver el nombre de la estación.

Haga clic para ver las observaciones y los pronósticos meteorológicos.

Para cambiar el mapa : haga clic en los botones verdes con una cruz de color negro para hacer un zoom, en el botón verde con un guión para alejar o en las flechas verdes para mapas adyacentes.


METAR-TAF: